Loma, Colorado
Current Conditions -  °F | °C
As of 2:53 PM on Sunday 23 Nov 2014 (Local Time) from KGJT Reporting Station
Few Clouds Few Clouds  
Wind Chill: 33°   Ceiling: Unl
Heat Index: 41°   Visibility: 10mi
Dew Point: 16°   Wind: 15mph
Humidity: 36%   Direction: 360°N
Pressure: 30"   Gusts: NA
Location:  39.2°N, 108.82°W
Report Text: KGJT 232153Z 36013KT 10SM FEW100 05/M09 A3000 RMK AO2 PK WND 35028/2125 WSHFT 2119 SLP162 T00501089
Loading
Personal Weather Stations






























Interactive Weather Map New forecast layout! Learn more

10-Day Weather Forecast

Advertisements
Track Severe Weather on mobile